Time;durP1;ratioP1;P1;durP2;ratioP2;P2;SDS_P1;SDS_P2;PMS_P1;PMS_P2;Temp;Humidity;BMP_temperature;BMP_pressure;BME280_temperature;BME280_humidity;BME280_pressure;Samples;Min_cycle;Max_cycle;Signal;HPM_P1;HPM_P2
2024/01/23 00:00:07;;;;;;;2.13;1.93;;;6.90;69.60;;;;;;5053990;28;20646;-62
2024/01/23 00:02:34;;;;;;;2.03;1.90;;;6.90;69.80;;;;;;5049191;28;20231;-62
2024/01/23 00:05:02;;;;;;;3.20;1.73;;;6.90;69.40;;;;;;5048853;28;20213;-62
2024/01/23 00:07:28;;;;;;;1.87;1.77;;;6.90;69.40;;;;;;5051944;28;20211;-62
2024/01/23 00:09:55;;;;;;;2.47;1.80;;;6.90;69.10;;;;;;5052585;28;20204;-62
2024/01/23 00:12:22;;;;;;;2.07;1.77;;;7.00;68.90;;;;;;5052873;28;20649;-62
2024/01/23 00:14:48;;;;;;;2.10;1.90;;;7.00;68.60;;;;;;5052520;28;20566;-62
2024/01/23 00:17:14;;;;;;;4.10;1.83;;;7.00;68.10;;;;;;5053033;28;20233;-62
2024/01/23 00:19:40;;;;;;;1.80;1.70;;;6.90;68.20;;;;;;5050520;28;20207;-62
2024/01/23 00:22:07;;;;;;;2.77;1.77;;;7.00;68.50;;;;;;5038482;28;20506;-62
2024/01/23 00:24:33;;;;;;;1.60;1.50;;;7.00;68.60;;;;;;5060994;28;20256;-62
2024/01/23 00:27:00;;;;;;;2.10;1.90;;;7.00;68.30;;;;;;5053163;28;20674;-62
2024/01/23 00:29:26;;;;;;;2.20;2.00;;;7.00;68.10;;;;;;5052433;28;20236;-62
2024/01/23 00:31:53;;;;;;;2.27;1.90;;;7.10;67.90;;;;;;5052618;28;20624;-62
2024/01/23 00:34:19;;;;;;;3.23;1.80;;;7.10;67.90;;;;;;5052508;28;20236;-62
2024/01/23 00:36:46;;;;;;;2.00;1.90;;;7.10;67.50;;;;;;5045239;28;20262;-62
2024/01/23 00:39:12;;;;;;;2.20;1.90;;;7.10;67.60;;;;;;5051826;28;20207;-62
2024/01/23 00:41:39;;;;;;;4.90;2.37;;;7.10;67.80;;;;;;5052252;28;20274;-62
2024/01/23 00:44:06;;;;;;;1.97;1.80;;;7.10;68.30;;;;;;5052062;28;20295;-62
2024/01/23 00:46:32;;;;;;;2.17;1.73;;;7.10;68.30;;;;;;5050796;28;20242;-61
2024/01/23 00:48:59;;;;;;;2.47;1.60;;;7.10;67.30;;;;;;5052399;28;20261;-62
2024/01/23 00:51:26;;;;;;;2.00;1.80;;;7.10;67.30;;;;;;5052408;28;20227;-62
2024/01/23 00:53:52;;;;;;;2.47;1.93;;;7.30;66.40;;;;;;5052268;28;20665;-62
2024/01/23 00:56:19;;;;;;;2.23;1.90;;;7.20;65.70;;;;;;5054355;28;20235;-62
2024/01/23 00:58:45;;;;;;;3.13;2.00;;;7.20;65.50;;;;;;5052429;28;20246;-62
2024/01/23 01:01:12;;;;;;;2.57;1.90;;;7.20;65.50;;;;;;5052513;28;20373;-62
2024/01/23 01:03:38;;;;;;;3.00;2.10;;;7.20;64.70;;;;;;5046501;28;20254;-62
2024/01/23 01:06:05;;;;;;;2.00;1.90;;;7.20;63.70;;;;;;5040245;28;20240;-62
2024/01/23 01:08:31;;;;;;;3.10;1.90;;;7.20;63.40;;;;;;5052328;28;20208;-62
2024/01/23 01:10:58;;;;;;;1.77;1.63;;;7.20;62.90;;;;;;5052107;28;20661;-61
2024/01/23 01:13:24;;;;;;;2.23;2.03;;;7.10;62.90;;;;;;5052642;28;20227;-62
2024/01/23 01:15:51;;;;;;;1.70;1.60;;;7.10;62.80;;;;;;5044164;28;20596;-62
2024/01/23 01:18:17;;;;;;;4.43;1.90;;;7.10;62.60;;;;;;5052272;28;20227;-62
2024/01/23 01:20:44;;;;;;;2.20;1.80;;;7.20;63.80;;;;;;5046184;28;20745;-62
2024/01/23 01:23:10;;;;;;;1.73;1.60;;;7.00;65.40;;;;;;5047820;28;20215;-62
2024/01/23 01:25:37;;;;;;;1.87;1.70;;;7.00;66.30;;;;;;5051452;28;20701;-62
2024/01/23 01:28:04;;;;;;;1.80;1.70;;;6.90;67.50;;;;;;5046083;28;20208;-62
2024/01/23 01:30:30;;;;;;;2.30;1.97;;;6.70;67.50;;;;;;5049681;28;20693;-61
2024/01/23 01:32:57;;;;;;;3.30;1.73;;;6.70;67.60;;;;;;5052033;28;20693;-62
2024/01/23 01:35:23;;;;;;;2.73;1.77;;;6.70;65.10;;;;;;5051916;28;20244;-62
2024/01/23 01:37:50;;;;;;;1.90;1.70;;;6.80;63.80;;;;;;5047719;28;20703;-62
2024/01/23 01:40:16;;;;;;;3.90;1.80;;;6.70;63.80;;;;;;5044384;28;20486;-62
2024/01/23 01:42:43;;;;;;;1.93;1.53;;;6.70;64.50;;;;;;5051875;28;20277;-61
2024/01/23 01:45:09;;;;;;;2.30;1.70;;;6.70;63.70;;;;;;5051512;28;20221;-60
2024/01/23 01:47:36;;;;;;;1.90;1.80;;;6.70;63.70;;;;;;5051985;28;20647;-62
2024/01/23 01:50:02;;;;;;;2.13;1.80;;;6.60;62.60;;;;;;5051346;28;20238;-62
2024/01/23 01:52:29;;;;;;;2.83;1.70;;;6.60;61.70;;;;;;5051583;28;20231;-62
2024/01/23 01:54:55;;;;;;;2.83;1.77;;;6.70;60.80;;;;;;5049173;28;20233;-61
2024/01/23 01:57:22;;;;;;;4.23;1.97;;;6.70;60.50;;;;;;5059010;28;20241;-62
2024/01/23 01:59:51;;;;;;;1.60;1.50;;;6.60;60.20;;;;;;5051774;28;20308;-62
2024/01/23 02:02:19;;;;;;;2.33;1.67;;;6.60;60.10;;;;;;5048055;28;20689;-61
2024/01/23 02:04:47;;;;;;;3.67;1.90;;;6.60;60.10;;;;;;5051705;28;20217;-62
2024/01/23 02:07:13;;;;;;;2.00;1.80;;;6.70;59.90;;;;;;5051695;28;20244;-62
2024/01/23 02:09:40;;;;;;;1.90;1.80;;;6.60;60.40;;;;;;5051099;28;20661;-61
2024/01/23 02:12:07;;;;;;;1.90;1.77;;;6.60;60.90;;;;;;5052183;28;20255;-62
2024/01/23 02:14:33;;;;;;;1.90;1.80;;;6.50;61.50;;;;;;5053794;28;20201;-62
2024/01/23 02:17:00;;;;;;;2.27;1.87;;;6.50;62.50;;;;;;5048345;28;20693;-62
2024/01/23 02:19:26;;;;;;;1.90;1.80;;;6.50;62.90;;;;;;5047326;28;20206;-61
2024/01/23 02:21:53;;;;;;;1.80;1.70;;;6.50;62.80;;;;;;5057756;28;20720;-62
2024/01/23 02:24:19;;;;;;;2.43;1.83;;;6.40;63.50;;;;;;5058430;28;20225;-62
2024/01/23 02:26:46;;;;;;;2.37;2.00;;;6.50;63.60;;;;;;5058223;28;20270;-62
2024/01/23 02:29:12;;;;;;;2.00;1.90;;;6.50;63.50;;;;;;5062764;28;20700;-62
2024/01/23 02:31:39;;;;;;;2.23;2.00;;;6.50;63.40;;;;;;5057986;28;20299;-60
2024/01/23 02:34:05;;;;;;;2.10;1.90;;;6.50;63.40;;;;;;5054439;28;20257;-62
2024/01/23 02:36:34;;;;;;;3.33;1.87;;;6.50;63.50;;;;;;5052870;28;20265;-62
2024/01/23 02:39:02;;;;;;;2.13;1.50;;;6.40;64.10;;;;;;5057976;28;20864;-62
2024/01/23 02:41:28;;;;;;;1.93;1.70;;;6.40;64.10;;;;;;5057652;28;20242;-62
2024/01/23 02:43:55;;;;;;;2.10;1.90;;;6.50;64.10;;;;;;5057538;28;20222;-62
2024/01/23 02:46:21;;;;;;;1.90;1.80;;;6.50;63.70;;;;;;5057838;28;20231;-62
2024/01/23 02:48:48;;;;;;;2.77;1.90;;;6.50;63.60;;;;;;5052362;28;20702;-62
2024/01/23 02:51:14;;;;;;;2.70;1.90;;;6.40;63.70;;;;;;5053209;28;20227;-62
2024/01/23 02:53:41;;;;;;;3.33;1.93;;;6.40;63.80;;;;;;5050733;28;20722;-62
2024/01/23 02:56:07;;;;;;;1.83;1.60;;;6.40;64.10;;;;;;5058122;28;20203;-62
2024/01/23 02:58:34;;;;;;;1.87;1.50;;;6.30;64.00;;;;;;5058127;28;20234;-62
2024/01/23 03:01:00;;;;;;;2.20;1.90;;;6.30;64.00;;;;;;5058051;28;20254;-62
2024/01/23 03:03:27;;;;;;;3.93;1.80;;;6.30;64.00;;;;;;5057560;28;20246;-62
2024/01/23 03:05:53;;;;;;;2.77;1.77;;;6.30;63.60;;;;;;5052737;28;20298;-62
2024/01/23 03:08:22;;;;;;;2.13;1.90;;;6.30;63.30;;;;;;5047759;28;20299;-62
2024/01/23 03:10:49;;;;;;;2.60;1.80;;;6.30;62.60;;;;;;5057460;28;20253;-63
2024/01/23 03:13:15;;;;;;;3.87;2.00;;;6.30;62.10;;;;;;5057709;28;20321;-62
2024/01/23 03:15:42;;;;;;;3.03;1.90;;;6.30;62.30;;;;;;5057642;28;20562;-62
2024/01/23 03:18:08;;;;;;;2.13;1.90;;;6.30;61.70;;;;;;5057762;28;20336;-62
2024/01/23 03:20:35;;;;;;;2.00;1.80;;;6.30;61.50;;;;;;5057676;28;20640;-61
2024/01/23 03:23:01;;;;;;;3.37;1.80;;;6.30;61.30;;;;;;5057601;28;20331;-62
2024/01/23 03:25:28;;;;;;;2.43;2.10;;;6.30;61.20;;;;;;5049033;28;20211;-62
2024/01/23 03:27:54;;;;;;;1.93;1.80;;;6.30;61.10;;;;;;5045333;28;20229;-62
2024/01/23 03:30:21;;;;;;;2.90;1.70;;;6.30;61.40;;;;;;5054764;28;20208;-62
2024/01/23 03:32:47;;;;;;;1.90;1.67;;;6.30;61.40;;;;;;5054329;28;20688;-62
2024/01/23 03:35:14;;;;;;;2.93;1.77;;;6.20;61.30;;;;;;5054352;28;20226;-61
2024/01/23 03:37:40;;;;;;;3.70;1.90;;;6.20;61.60;;;;;;5055626;28;20215;-62
2024/01/23 03:40:07;;;;;;;1.80;1.70;;;6.20;61.80;;;;;;5054223;28;20253;-62
2024/01/23 03:42:34;;;;;;;2.10;2.00;;;6.30;61.70;;;;;;5047476;28;20324;-62
2024/01/23 03:45:00;;;;;;;2.37;2.17;;;6.20;61.90;;;;;;5048671;28;20802;-62
2024/01/23 03:47:28;;;;;;;2.23;1.53;;;6.20;62.30;;;;;;5046238;28;20233;-62
2024/01/23 03:49:54;;;;;;;1.90;1.80;;;6.30;61.90;;;;;;5048808;28;20302;-62
2024/01/23 03:52:22;;;;;;;1.87;1.70;;;6.30;61.60;;;;;;5054598;28;20227;-62
2024/01/23 03:54:49;;;;;;;1.73;1.63;;;6.30;61.30;;;;;;5054115;28;20231;-62
2024/01/23 03:57:15;;;;;;;2.30;2.07;;;6.30;60.70;;;;;;5060253;28;20351;-62
2024/01/23 03:59:42;;;;;;;2.27;1.80;;;6.30;59.80;;;;;;5054579;28;20684;-62
2024/01/23 04:02:08;;;;;;;3.13;1.83;;;6.20;59.40;;;;;;5053640;28;20259;-62
2024/01/23 04:04:36;;;;;;;3.87;2.07;;;6.30;59.30;;;;;;5042206;28;20207;-62
2024/01/23 04:07:02;;;;;;;3.73;2.00;;;6.30;59.40;;;;;;5041867;28;20211;-62
2024/01/23 04:09:29;;;;;;;3.50;1.97;;;6.20;60.00;;;;;;5053555;28;20303;-62
2024/01/23 04:11:56;;;;;;;2.30;2.00;;;6.20;60.00;;;;;;5053078;28;20243;-62
2024/01/23 04:14:22;;;;;;;2.70;2.00;;;6.20;60.00;;;;;;5053171;28;20317;-62
2024/01/23 04:16:49;;;;;;;2.43;2.23;;;6.20;60.00;;;;;;5053427;28;20247;-62
2024/01/23 04:19:15;;;;;;;2.90;1.93;;;6.30;60.10;;;;;;5053339;28;20217;-62
2024/01/23 04:21:42;;;;;;;2.33;2.00;;;6.20;60.40;;;;;;5048961;28;20323;-62
2024/01/23 04:24:07;;;;;;;2.07;1.87;;;6.10;60.60;;;;;;5047376;28;20231;-62
2024/01/23 04:26:34;;;;;;;2.20;2.00;;;6.10;61.10;;;;;;5061442;28;20680;-61
2024/01/23 04:29:00;;;;;;;5.27;2.03;;;6.10;61.00;;;;;;5053155;28;20246;-62
2024/01/23 04:31:27;;;;;;;2.23;1.93;;;6.10;60.90;;;;;;5053856;28;20226;-62
2024/01/23 04:33:53;;;;;;;2.13;1.93;;;6.10;60.20;;;;;;5052912;28;20231;-62
2024/01/23 04:36:20;;;;;;;2.33;2.00;;;6.10;59.50;;;;;;5053173;28;20658;-62
2024/01/23 04:38:46;;;;;;;3.43;1.90;;;6.10;58.60;;;;;;5048639;28;20211;-61
2024/01/23 04:41:13;;;;;;;2.90;2.10;;;6.20;58.50;;;;;;5048915;28;20666;-61
2024/01/23 04:43:40;;;;;;;2.77;1.90;;;6.10;58.50;;;;;;5052707;28;20241;-62
2024/01/23 04:46:06;;;;;;;3.00;2.17;;;6.10;58.50;;;;;;5052986;28;20237;-62
2024/01/23 04:48:33;;;;;;;3.40;2.10;;;6.10;58.90;;;;;;5051809;28;20210;-60
2024/01/23 04:50:59;;;;;;;3.63;2.30;;;6.10;58.90;;;;;;5053308;28;20227;-62
2024/01/23 04:53:29;;;;;;;5.90;2.30;;;6.10;58.60;;;;;;5051533;28;20258;-62
2024/01/23 04:55:55;;;;;;;3.30;2.10;;;6.10;58.90;;;;;;5058221;28;20294;-62
2024/01/23 04:58:22;;;;;;;5.50;2.17;;;6.00;59.50;;;;;;5053040;28;20233;-62
2024/01/23 05:00:48;;;;;;;3.47;1.90;;;6.00;59.90;;;;;;5053023;28;20242;-62
2024/01/23 05:03:15;;;;;;;3.23;1.90;;;6.00;59.90;;;;;;5052693;28;20631;-62
2024/01/23 05:05:41;;;;;;;3.23;2.20;;;6.00;60.10;;;;;;5052931;28;20279;-61
2024/01/23 05:08:08;;;;;;;3.57;2.00;;;6.00;60.30;;;;;;5045344;28;20582;-62
2024/01/23 05:10:35;;;;;;;2.33;2.07;;;6.00;60.10;;;;;;5046658;28;20206;-62
2024/01/23 05:13:01;;;;;;;3.83;2.10;;;6.00;59.70;;;;;;5060612;28;20239;-62
2024/01/23 05:15:28;;;;;;;4.63;2.17;;;6.00;59.50;;;;;;5052777;28;20209;-62
2024/01/23 05:17:54;;;;;;;3.37;2.17;;;6.00;58.90;;;;;;5052368;28;20283;-62
2024/01/23 05:20:21;;;;;;;2.83;2.33;;;6.00;58.50;;;;;;5052111;28;20252;-62
2024/01/23 05:22:47;;;;;;;2.20;2.10;;;6.00;58.20;;;;;;5053988;28;20715;-62
2024/01/23 05:25:14;;;;;;;4.53;2.20;;;6.00;58.50;;;;;;5050312;28;20221;-62
2024/01/23 05:27:40;;;;;;;2.77;2.00;;;5.90;58.60;;;;;;5042568;28;20256;-62
2024/01/23 05:30:07;;;;;;;2.60;2.20;;;5.90;59.00;;;;;;5049773;28;20201;-62
2024/01/23 05:32:33;;;;;;;3.77;2.20;;;6.00;59.30;;;;;;5049723;28;20645;-62
2024/01/23 05:35:03;;;;;;;4.43;2.53;;;6.00;59.10;;;;;;5051639;28;20252;-61
2024/01/23 05:37:30;;;;;;;3.90;2.30;;;5.90;59.70;;;;;;5042963;28;20267;-62
2024/01/23 05:39:56;;;;;;;4.30;2.33;;;5.80;59.70;;;;;;5052392;28;20240;-62
2024/01/23 05:42:23;;;;;;;3.10;1.97;;;5.80;59.70;;;;;;5048262;28;20734;-62
2024/01/23 05:44:49;;;;;;;3.77;2.20;;;5.80;59.70;;;;;;5051662;28;20205;-62
2024/01/23 05:47:16;;;;;;;4.97;2.07;;;5.80;60.50;;;;;;5051982;28;20641;-62
2024/01/23 05:49:42;;;;;;;4.60;2.30;;;5.70;60.90;;;;;;5047572;28;20236;-64
2024/01/23 05:52:09;;;;;;;4.37;2.10;;;5.80;61.00;;;;;;5047005;28;20308;-62
2024/01/23 05:54:37;;;;;;;4.03;2.20;;;5.80;60.70;;;;;;5056250;28;20313;-62
2024/01/23 05:57:04;;;;;;;2.30;2.10;;;5.80;60.90;;;;;;5052291;28;20226;-61
2024/01/23 05:59:30;;;;;;;3.47;2.00;;;5.80;60.90;;;;;;5051570;28;20243;-62
2024/01/23 06:01:57;;;;;;;2.77;1.93;;;5.90;60.70;;;;;;5051316;28;20259;-62
2024/01/23 06:04:23;;;;;;;2.40;2.03;;;5.90;60.30;;;;;;5051514;28;20207;-62
2024/01/23 06:06:50;;;;;;;2.20;2.00;;;6.00;60.40;;;;;;5043079;28;20215;-62
2024/01/23 06:09:16;;;;;;;2.10;1.83;;;6.00;60.10;;;;;;5043765;28;20206;-62
2024/01/23 06:11:43;;;;;;;5.23;2.10;;;6.00;59.90;;;;;;5043810;28;20246;-62
2024/01/23 06:14:09;;;;;;;2.77;2.00;;;6.00;59.60;;;;;;5051525;28;20271;-62
2024/01/23 06:16:36;;;;;;;2.77;2.37;;;6.10;59.50;;;;;;5051289;28;20249;-62
2024/01/23 06:19:03;;;;;;;3.00;2.00;;;6.00;59.40;;;;;;5051581;28;20202;-62
2024/01/23 06:21:29;;;;;;;6.37;2.27;;;6.10;59.90;;;;;;5050898;28;20320;-62
2024/01/23 06:23:56;;;;;;;4.10;2.40;;;6.10;59.20;;;;;;5051269;28;20241;-62
2024/01/23 06:26:22;;;;;;;3.50;2.20;;;6.10;59.50;;;;;;5041974;28;20214;-62
2024/01/23 06:28:49;;;;;;;3.57;2.13;;;6.10;59.40;;;;;;5051239;28;20326;-62
2024/01/23 06:31:15;;;;;;;3.90;2.37;;;6.20;58.40;;;;;;5050911;28;20258;-60
2024/01/23 06:33:42;;;;;;;4.47;2.17;;;6.20;58.80;;;;;;5048382;28;20256;-62
2024/01/23 06:36:08;;;;;;;4.77;1.97;;;6.20;59.60;;;;;;5047938;28;20684;-62
2024/01/23 06:38:35;;;;;;;5.30;2.23;;;6.10;60.00;;;;;;5051097;28;20241;-62
2024/01/23 06:41:01;;;;;;;2.57;2.13;;;6.10;60.00;;;;;;5047142;28;20288;-62
2024/01/23 06:43:28;;;;;;;4.70;2.10;;;6.10;59.20;;;;;;5047537;28;20210;-61
2024/01/23 06:45:54;;;;;;;3.27;2.10;;;6.10;58.70;;;;;;5051277;28;20750;-62
2024/01/23 06:48:21;;;;;;;5.73;3.10;;;6.10;58.70;;;;;;5050979;28;20241;-62
2024/01/23 06:50:48;;;;;;;4.80;2.10;;;6.10;58.40;;;;;;5047885;28;20214;-62
2024/01/23 06:53:14;;;;;;;4.33;2.23;;;6.10;58.50;;;;;;5042630;28;20306;-62
2024/01/23 06:55:41;;;;;;;6.43;2.20;;;6.10;58.70;;;;;;5049803;28;20646;-62
2024/01/23 06:58:07;;;;;;;3.63;2.17;;;6.10;58.50;;;;;;5057826;28;20235;-62
2024/01/23 07:00:34;;;;;;;4.80;2.40;;;6.10;58.70;;;;;;5055467;28;20203;-62
2024/01/23 07:03:01;;;;;;;4.57;2.20;;;6.10;58.80;;;;;;5037628;28;20207;-61
2024/01/23 07:05:27;;;;;;;4.20;2.17;;;6.10;59.10;;;;;;5043410;28;20230;-62
2024/01/23 07:07:53;;;;;;;3.70;2.20;;;6.10;59.40;;;;;;5051120;28;20634;-62
2024/01/23 07:10:19;;;;;;;3.67;2.10;;;6.10;60.60;;;;;;5050560;28;20212;-62
2024/01/23 07:12:46;;;;;;;6.20;2.50;;;6.00;60.60;;;;;;5054644;28;20265;-62
2024/01/23 07:15:12;;;;;;;5.47;3.50;;;6.10;60.00;;;;;;5054038;28;20784;-62
2024/01/23 07:17:38;;;;;;;5.40;2.70;;;6.10;60.60;;;;;;5054443;28;20225;-62
2024/01/23 07:20:09;;;;;;;3.00;2.10;;;6.10;60.50;;;;;;5050650;28;20237;-62
2024/01/23 07:22:35;;;;;;;3.83;2.03;;;6.10;60.00;;;;;;5041474;28;20235;-62
2024/01/23 07:25:02;;;;;;;3.83;2.10;;;6.10;60.00;;;;;;5059971;28;20257;-62
2024/01/23 07:27:29;;;;;;;6.10;2.63;;;6.10;60.20;;;;;;5036959;28;20200;-62
2024/01/23 07:30:04;;;;;;;1.90;1.80;;;6.10;60.00;;;;;;5052566;28;20206;-62
2024/01/23 07:35:17;;;;;;;3.80;2.37;;;6.10;60.00;;;;;;5043267;28;20229;-62
2024/01/23 07:37:44;;;;;;;3.80;2.43;;;6.00;60.30;;;;;;5045560;28;20265;-62
2024/01/23 07:40:10;;;;;;;3.90;2.20;;;5.90;60.30;;;;;;5049453;28;20237;-61
2024/01/23 07:42:37;;;;;;;3.57;2.07;;;6.00;60.80;;;;;;5045606;28;20227;-62
2024/01/23 07:45:05;;;;;;;3.60;2.27;;;6.00;60.80;;;;;;5045859;28;20294;-60
2024/01/23 07:47:34;;;;;;;2.93;1.73;;;6.00;61.20;;;;;;5052460;28;20290;-62
2024/01/23 07:50:01;;;;;;;3.17;2.10;;;5.90;62.00;;;;;;5039026;28;20199;-62
2024/01/23 07:52:31;;;;;;;2.23;1.93;;;5.90;62.30;;;;;;5045021;28;20222;-62
2024/01/23 07:54:58;;;;;;;2.83;2.30;;;5.90;62.80;;;;;;5052445;28;20582;-61
2024/01/23 07:57:24;;;;;;;2.73;2.10;;;5.80;63.00;;;;;;5037157;28;20207;-61
2024/01/23 07:59:51;;;;;;;2.80;2.10;;;5.80;63.20;;;;;;5032417;28;20210;-62
2024/01/23 08:02:18;;;;;;;5.63;2.10;;;5.80;63.80;;;;;;5045267;28;20327;-61
2024/01/23 08:04:44;;;;;;;4.13;2.20;;;5.70;64.20;;;;;;5046394;28;20572;-62
2024/01/23 08:07:10;;;;;;;2.77;2.30;;;5.80;64.30;;;;;;5046800;28;20241;-61
2024/01/23 08:09:37;;;;;;;2.83;2.40;;;5.80;64.30;;;;;;5047423;28;20233;-62
2024/01/23 08:12:05;;;;;;;3.63;2.13;;;5.70;64.60;;;;;;5035238;28;20256;-61
2024/01/23 08:14:32;;;;;;;2.30;1.97;;;5.80;64.60;;;;;;5029443;28;20225;-62
2024/01/23 08:16:58;;;;;;;3.93;2.10;;;5.60;65.20;;;;;;5039946;28;20637;-62
2024/01/23 08:19:26;;;;;;;1.93;1.83;;;5.60;65.80;;;;;;5051099;28;20205;-62
2024/01/23 08:21:52;;;;;;;3.23;2.10;;;5.60;65.30;;;;;;5049628;28;20606;-60
2024/01/23 08:24:19;;;;;;;1.80;1.70;;;5.60;65.70;;;;;;5047410;28;20237;-62
2024/01/23 08:26:47;;;;;;;2.67;2.00;;;5.60;65.60;;;;;;5048162;28;20594;-62
2024/01/23 08:29:14;;;;;;;3.90;1.87;;;5.60;66.20;;;;;;5048032;28;20217;-62
2024/01/23 08:31:40;;;;;;;3.73;2.00;;;5.60;68.50;;;;;;5039244;28;20792;-62
2024/01/23 08:34:07;;;;;;;1.90;1.70;;;5.60;68.10;;;;;;5046091;28;20381;-59
2024/01/23 08:36:33;;;;;;;2.47;1.60;;;5.70;67.70;;;;;;5047835;28;20237;-62
2024/01/23 08:39:00;;;;;;;2.10;1.73;;;5.60;68.70;;;;;;5037739;28;20214;-61
2024/01/23 08:41:27;;;;;;;2.37;2.07;;;5.50;68.90;;;;;;5042190;28;20235;-60
2024/01/23 08:43:53;;;;;;;4.90;2.00;;;5.40;69.50;;;;;;5048024;28;20295;-64
2024/01/23 08:46:20;;;;;;;2.30;2.10;;;5.30;70.70;;;;;;5048067;28;20237;-61
2024/01/23 08:48:46;;;;;;;4.50;1.90;;;5.40;69.20;;;;;;5047414;28;20214;-62
2024/01/23 08:51:13;;;;;;;3.60;1.90;;;5.50;68.60;;;;;;5051244;28;20273;-62
2024/01/23 08:53:39;;;;;;;5.10;2.30;;;5.40;69.90;;;;;;5050807;28;20267;-61
2024/01/23 08:56:06;;;;;;;3.27;1.97;;;5.40;70.10;;;;;;5049860;28;20296;-60
2024/01/23 08:58:32;;;;;;;3.13;2.00;;;5.40;70.40;;;;;;5026461;28;20222;-61
2024/01/23 09:00:59;;;;;;;3.17;1.80;;;5.30;70.70;;;;;;5039371;28;20668;-60
2024/01/23 09:03:25;;;;;;;1.83;1.73;;;5.30;71.80;;;;;;5031210;28;20206;-61
2024/01/23 09:05:52;;;;;;;2.00;1.80;;;5.40;72.20;;;;;;5046645;28;20285;-62
2024/01/23 09:08:18;;;;;;;1.87;1.70;;;5.30;72.10;;;;;;5049337;28;20231;-61
2024/01/23 09:10:45;;;;;;;2.03;1.83;;;5.40;71.80;;;;;;5046738;28;20234;-61
2024/01/23 09:13:11;;;;;;;2.07;1.97;;;5.40;71.50;;;;;;5047574;28;20298;-61
2024/01/23 09:15:38;;;;;;;1.80;1.70;;;5.30;71.90;;;;;;5042968;28;20252;-61
2024/01/23 09:18:05;;;;;;;3.80;2.53;;;5.30;72.90;;;;;;5042456;28;20234;-61
2024/01/23 09:20:31;;;;;;;2.20;1.93;;;5.10;73.60;;;;;;5046015;28;20230;-61
2024/01/23 09:22:58;;;;;;;2.30;2.10;;;5.10;73.40;;;;;;5048841;28;20313;-61
2024/01/23 09:25:25;;;;;;;5.70;2.07;;;5.10;73.80;;;;;;5040659;28;20217;-61
2024/01/23 09:27:51;;;;;;;4.00;2.10;;;5.10;72.70;;;;;;5040356;28;21018;-61
2024/01/23 09:30:18;;;;;;;3.73;2.00;;;5.10;74.60;;;;;;5042090;28;20229;-61
2024/01/23 09:32:45;;;;;;;6.17;2.30;;;5.00;74.60;;;;;;5049677;28;20606;-61
2024/01/23 09:35:11;;;;;;;2.43;2.13;;;5.10;75.00;;;;;;5045251;28;20647;-62
2024/01/23 09:37:38;;;;;;;2.07;1.90;;;5.10;73.70;;;;;;5050296;28;20241;-61
2024/01/23 09:40:04;;;;;;;4.33;2.37;;;5.20;75.60;;;;;;5047772;28;20198;-61
2024/01/23 09:42:31;;;;;;;2.40;2.20;;;5.30;74.40;;;;;;5042815;28;20312;-62
2024/01/23 09:44:58;;;;;;;4.60;2.27;;;6.10;72.10;;;;;;5051116;28;20241;-61
2024/01/23 09:47:24;;;;;;;3.07;2.83;;;5.90;71.10;;;;;;5047246;28;20200;-61
2024/01/23 09:49:51;;;;;;;4.10;2.60;;;6.10;71.70;;;;;;5040117;28;20662;-60
2024/01/23 09:52:18;;;;;;;2.83;2.10;;;6.40;69.40;;;;;;5022192;28;20773;-61
2024/01/23 09:54:44;;;;;;;3.23;2.10;;;7.00;65.80;;;;;;5037241;28;20225;-61
2024/01/23 09:57:11;;;;;;;3.50;2.00;;;6.90;65.30;;;;;;5038123;28;20237;-61
2024/01/23 09:59:37;;;;;;;2.90;2.13;;;7.10;64.20;;;;;;5039991;28;20282;-60
2024/01/23 10:02:04;;;;;;;2.77;2.30;;;7.60;63.40;;;;;;5046050;28;20249;-62
2024/01/23 10:04:30;;;;;;;2.27;2.00;;;8.10;61.00;;;;;;5048828;28;20566;-61
2024/01/23 10:06:57;;;;;;;3.47;2.30;;;8.20;60.00;;;;;;5040809;28;20207;-62
2024/01/23 10:09:24;;;;;;;4.50;2.23;;;8.30;59.20;;;;;;5053794;28;20207;-62
2024/01/23 10:11:50;;;;;;;2.97;2.23;;;8.40;59.00;;;;;;5045667;28;20284;-61
2024/01/23 10:14:17;;;;;;;3.30;2.20;;;7.60;60.40;;;;;;5049312;28;20226;-61
2024/01/23 10:16:43;;;;;;;3.10;2.07;;;7.40;62.00;;;;;;5050484;28;20581;-61
2024/01/23 10:19:11;;;;;;;3.43;2.23;;;7.40;61.40;;;;;;5047224;28;20282;-61
2024/01/23 10:21:37;;;;;;;3.20;2.00;;;7.20;62.60;;;;;;5048808;28;20602;-61
2024/01/23 10:24:04;;;;;;;4.70;2.30;;;7.10;63.20;;;;;;5053597;28;20202;-60
2024/01/23 10:26:32;;;;;;;2.80;2.07;;;6.80;64.10;;;;;;5051770;28;20622;-60
2024/01/23 10:28:58;;;;;;;4.03;2.10;;;6.80;64.00;;;;;;5047779;28;20657;-61
2024/01/23 10:31:25;;;;;;;2.57;2.10;;;6.80;63.10;;;;;;5050349;28;20715;-62
2024/01/23 10:33:51;;;;;;;2.40;2.20;;;6.80;63.40;;;;;;5046846;28;20231;-62
2024/01/23 10:36:18;;;;;;;2.37;2.00;;;6.90;63.00;;;;;;5045075;28;20647;-62
2024/01/23 10:38:49;;;;;;;3.77;2.00;;;6.70;62.70;;;;;;5050506;28;20225;-61
2024/01/23 10:41:16;;;;;;;2.83;1.97;;;6.90;62.80;;;;;;5047711;28;20271;-70
2024/01/23 10:43:42;;;;;;;2.00;1.80;;;7.10;65.20;;;;;;5051161;28;20263;-72
2024/01/23 10:46:09;;;;;;;2.77;2.37;;;7.20;63.80;;;;;;5053975;28;20266;-72
2024/01/23 10:48:35;;;;;;;2.93;2.10;;;7.10;65.50;;;;;;5046834;28;20209;-69
2024/01/23 10:51:02;;;;;;;2.97;2.00;;;7.30;65.60;;;;;;5047536;28;20706;-62
2024/01/23 10:53:28;;;;;;;2.83;2.03;;;7.20;62.70;;;;;;5031078;28;20311;-62
2024/01/23 10:55:55;;;;;;;2.27;2.07;;;7.10;63.50;;;;;;5046657;28;20240;-62
2024/01/23 10:58:21;;;;;;;2.70;2.13;;;7.30;63.60;;;;;;5044884;28;20268;-62
2024/01/23 11:00:48;;;;;;;2.83;2.00;;;7.50;63.00;;;;;;5039930;28;20296;-62
2024/01/23 11:03:14;;;;;;;5.10;2.83;;;7.70;61.40;;;;;;5054066;28;20237;-62
2024/01/23 11:05:41;;;;;;;4.80;1.90;;;7.80;60.70;;;;;;5046987;28;20237;-68
2024/01/23 11:08:09;;;;;;;2.67;2.00;;;8.00;60.00;;;;;;5040712;28;20203;-60
2024/01/23 11:10:35;;;;;;;3.70;2.23;;;8.20;60.40;;;;;;5051494;28;20198;-62
2024/01/23 11:13:02;;;;;;;2.37;1.90;;;8.50;58.40;;;;;;5019317;28;20336;-62
2024/01/23 11:15:28;;;;;;;4.53;2.03;;;8.00;59.80;;;;;;5012620;28;20218;-62
2024/01/23 11:17:56;;;;;;;3.20;2.00;;;7.90;59.70;;;;;;5012783;28;20231;-62
2024/01/23 11:20:22;;;;;;;4.17;1.90;;;7.90;59.80;;;;;;5014937;28;20211;-62
2024/01/23 11:22:48;;;;;;;3.53;2.00;;;8.10;59.30;;;;;;5006340;28;20236;-62
2024/01/23 11:25:16;;;;;;;5.57;2.10;;;8.20;58.60;;;;;;5014369;28;20207;-62
2024/01/23 11:27:43;;;;;;;4.53;2.00;;;8.80;57.80;;;;;;5012515;28;20719;-62
2024/01/23 11:30:09;;;;;;;3.97;1.90;;;8.70;57.60;;;;;;5011756;28;20210;-62
2024/01/23 11:32:36;;;;;;;4.43;2.00;;;8.60;57.10;;;;;;5012981;28;20252;-62
2024/01/23 11:35:03;;;;;;;3.70;2.00;;;8.50;57.60;;;;;;5013906;28;20265;-61
2024/01/23 11:37:28;;;;;;;2.93;2.03;;;8.10;57.30;;;;;;5016233;28;20204;-62
2024/01/23 11:39:55;;;;;;;3.47;2.30;;;8.20;57.00;;;;;;5012940;28;20250;-61
2024/01/23 11:42:21;;;;;;;2.53;2.20;;;8.20;57.40;;;;;;5014384;28;20257;-62
2024/01/23 11:44:48;;;;;;;5.80;2.40;;;8.50;56.70;;;;;;5014037;28;20637;-62
2024/01/23 11:47:14;;;;;;;2.47;2.10;;;8.70;56.30;;;;;;5007647;28;20225;-62
2024/01/23 11:49:41;;;;;;;7.43;2.27;;;9.40;53.30;;;;;;5000310;28;20242;-62
2024/01/23 11:52:08;;;;;;;3.60;2.20;;;9.50;53.60;;;;;;5009649;28;20227;-62
2024/01/23 11:54:35;;;;;;;3.93;2.03;;;9.60;52.80;;;;;;5011518;28;20217;-62
2024/01/23 11:57:03;;;;;;;5.83;2.33;;;9.40;51.90;;;;;;5005939;28;20262;-62
2024/01/23 11:59:29;;;;;;;5.37;2.10;;;9.70;51.00;;;;;;5014384;28;20577;-62
2024/01/23 12:01:56;;;;;;;3.40;1.90;;;9.90;49.90;;;;;;5013622;28;20291;-60
2024/01/23 12:04:22;;;;;;;3.40;1.97;;;10.10;49.10;;;;;;4999971;28;20856;-61
2024/01/23 12:06:49;;;;;;;3.30;1.93;;;10.20;47.80;;;;;;5000668;28;20571;-61
2024/01/23 12:09:15;;;;;;;3.57;1.97;;;10.20;47.30;;;;;;5013130;28;20245;-62
2024/01/23 12:11:42;;;;;;;4.07;2.00;;;10.30;46.80;;;;;;5013481;28;20265;-62
2024/01/23 12:14:08;;;;;;;4.50;2.00;;;10.10;47.50;;;;;;5003971;28;20236;-61
2024/01/23 12:16:35;;;;;;;3.57;1.80;;;10.30;46.60;;;;;;5007197;28;20288;-62
2024/01/23 12:19:01;;;;;;;4.77;2.13;;;10.10;47.20;;;;;;5013423;28;20206;-62
2024/01/23 12:21:28;;;;;;;3.23;2.00;;;10.40;47.10;;;;;;5013079;28;20284;-61
2024/01/23 12:23:55;;;;;;;3.30;1.93;;;10.60;46.90;;;;;;5016419;28;20208;-61
2024/01/23 12:26:22;;;;;;;4.47;2.13;;;10.20;47.50;;;;;;5012774;28;20231;-61
2024/01/23 12:28:48;;;;;;;4.03;2.27;;;10.00;47.80;;;;;;5013999;28;20240;-61
2024/01/23 12:31:15;;;;;;;3.10;1.83;;;9.50;49.30;;;;;;5007656;28;20692;-60
2024/01/23 12:33:41;;;;;;;4.27;1.97;;;9.20;50.60;;;;;;5002663;28;20212;-61
2024/01/23 12:36:08;;;;;;;3.50;1.97;;;9.20;50.20;;;;;;5012175;28;20637;-61
2024/01/23 12:38:35;;;;;;;5.03;2.47;;;9.00;51.10;;;;;;5012786;28;20313;-61
2024/01/23 12:41:01;;;;;;;5.27;2.70;;;8.80;52.20;;;;;;5012687;28;20393;-61
2024/01/23 12:43:28;;;;;;;6.20;2.00;;;8.90;51.90;;;;;;5013120;28;20217;-61
2024/01/23 12:45:54;;;;;;;3.33;2.00;;;8.90;52.00;;;;;;5012574;28;20233;-61
2024/01/23 12:48:21;;;;;;;7.50;2.07;;;9.10;51.20;;;;;;5001667;28;20281;-61
2024/01/23 12:50:48;;;;;;;4.00;2.30;;;9.20;50.80;;;;;;5006152;28;20360;-61
2024/01/23 12:53:14;;;;;;;4.30;2.10;;;9.10;51.20;;;;;;5012511;28;20209;-60
2024/01/23 12:55:41;;;;;;;3.50;2.17;;;9.00;51.60;;;;;;5013120;28;20267;-61